sensor_id;sensor_type;location;lat;lon;timestamp;P1;durP1;ratioP1;P2;durP2;ratioP2
67751;SDS011;54551;51.068;5.826;2023-04-21T00:00:49;32.47;;;29.30;;
67751;SDS011;54551;51.068;5.826;2023-04-21T00:03:16;30.67;;;27.60;;
67751;SDS011;54551;51.068;5.826;2023-04-21T00:05:44;31.67;;;28.57;;
67751;SDS011;54551;51.068;5.826;2023-04-21T00:08:10;30.43;;;27.63;;
67751;SDS011;54551;51.068;5.826;2023-04-21T00:10:36;31.27;;;28.20;;
67751;SDS011;54551;51.068;5.826;2023-04-21T00:13:02;32.37;;;29.17;;
67751;SDS011;54551;51.068;5.826;2023-04-21T00:15:28;32.37;;;29.17;;
67751;SDS011;54551;51.068;5.826;2023-04-21T00:17:54;34.73;;;31.33;;
67751;SDS011;54551;51.068;5.826;2023-04-21T00:20:20;33.97;;;30.67;;
67751;SDS011;54551;51.068;5.826;2023-04-21T00:22:46;34.50;;;30.90;;
67751;SDS011;54551;51.068;5.826;2023-04-21T00:25:12;36.53;;;32.87;;
67751;SDS011;54551;51.068;5.826;2023-04-21T00:27:39;33.47;;;30.07;;
67751;SDS011;54551;51.068;5.826;2023-04-21T00:30:05;34.90;;;31.40;;
67751;SDS011;54551;51.068;5.826;2023-04-21T00:32:31;32.47;;;29.27;;
67751;SDS011;54551;51.068;5.826;2023-04-21T00:34:57;32.60;;;29.20;;
67751;SDS011;54551;51.068;5.826;2023-04-21T00:37:23;30.63;;;27.50;;
67751;SDS011;54551;51.068;5.826;2023-04-21T00:39:49;35.43;;;31.93;;
67751;SDS011;54551;51.068;5.826;2023-04-21T00:42:15;33.50;;;30.10;;
67751;SDS011;54551;51.068;5.826;2023-04-21T00:44:41;34.10;;;30.63;;
67751;SDS011;54551;51.068;5.826;2023-04-21T00:47:07;34.27;;;30.83;;
67751;SDS011;54551;51.068;5.826;2023-04-21T00:49:33;34.97;;;31.43;;
67751;SDS011;54551;51.068;5.826;2023-04-21T00:51:59;35.97;;;32.37;;
67751;SDS011;54551;51.068;5.826;2023-04-21T00:54:26;34.83;;;31.33;;
67751;SDS011;54551;51.068;5.826;2023-04-21T00:56:52;37.20;;;33.53;;
67751;SDS011;54551;51.068;5.826;2023-04-21T00:59:21;34.97;;;31.53;;
67751;SDS011;54551;51.068;5.826;2023-04-21T01:01:47;35.27;;;31.87;;
67751;SDS011;54551;51.068;5.826;2023-04-21T01:04:13;38.37;;;34.40;;
67751;SDS011;54551;51.068;5.826;2023-04-21T01:06:39;36.60;;;32.80;;
67751;SDS011;54551;51.068;5.826;2023-04-21T01:09:06;38.43;;;34.63;;
67751;SDS011;54551;51.068;5.826;2023-04-21T01:11:35;36.83;;;33.03;;
67751;SDS011;54551;51.068;5.826;2023-04-21T01:14:01;36.83;;;33.03;;
67751;SDS011;54551;51.068;5.826;2023-04-21T01:16:26;36.60;;;32.67;;
67751;SDS011;54551;51.068;5.826;2023-04-21T01:18:53;38.40;;;34.57;;
67751;SDS011;54551;51.068;5.826;2023-04-21T01:21:19;39.37;;;35.27;;
67751;SDS011;54551;51.068;5.826;2023-04-21T01:23:46;38.03;;;34.13;;
67751;SDS011;54551;51.068;5.826;2023-04-21T01:26:12;38.80;;;34.67;;
67751;SDS011;54551;51.068;5.826;2023-04-21T01:28:37;37.27;;;33.47;;
67751;SDS011;54551;51.068;5.826;2023-04-21T01:31:04;41.00;;;36.60;;
67751;SDS011;54551;51.068;5.826;2023-04-21T01:33:30;40.80;;;36.60;;
67751;SDS011;54551;51.068;5.826;2023-04-21T01:35:57;39.97;;;35.93;;
67751;SDS011;54551;51.068;5.826;2023-04-21T01:38:23;40.27;;;36.20;;
67751;SDS011;54551;51.068;5.826;2023-04-21T01:40:50;41.10;;;36.97;;
67751;SDS011;54551;51.068;5.826;2023-04-21T01:43:19;43.57;;;39.17;;
67751;SDS011;54551;51.068;5.826;2023-04-21T01:45:47;41.73;;;37.43;;
67751;SDS011;54551;51.068;5.826;2023-04-21T01:48:13;41.03;;;36.80;;
67751;SDS011;54551;51.068;5.826;2023-04-21T01:50:39;41.70;;;37.40;;
67751;SDS011;54551;51.068;5.826;2023-04-21T01:53:08;42.27;;;37.97;;
67751;SDS011;54551;51.068;5.826;2023-04-21T01:55:34;44.10;;;39.60;;
67751;SDS011;54551;51.068;5.826;2023-04-21T01:58:00;43.17;;;38.50;;
67751;SDS011;54551;51.068;5.826;2023-04-21T02:00:26;44.33;;;39.90;;
67751;SDS011;54551;51.068;5.826;2023-04-21T02:02:52;43.93;;;39.20;;
67751;SDS011;54551;51.068;5.826;2023-04-21T02:05:18;45.40;;;40.60;;
67751;SDS011;54551;51.068;5.826;2023-04-21T02:07:44;45.83;;;40.83;;
67751;SDS011;54551;51.068;5.826;2023-04-21T02:10:10;43.53;;;38.93;;
67751;SDS011;54551;51.068;5.826;2023-04-21T02:12:36;45.17;;;40.47;;
67751;SDS011;54551;51.068;5.826;2023-04-21T02:15:02;44.47;;;39.80;;
67751;SDS011;54551;51.068;5.826;2023-04-21T02:17:30;43.87;;;39.37;;
67751;SDS011;54551;51.068;5.826;2023-04-21T02:19:56;43.27;;;38.57;;
67751;SDS011;54551;51.068;5.826;2023-04-21T02:22:22;42.27;;;37.87;;
67751;SDS011;54551;51.068;5.826;2023-04-21T02:24:48;43.97;;;39.47;;
67751;SDS011;54551;51.068;5.826;2023-04-21T02:27:14;41.37;;;37.13;;
67751;SDS011;54551;51.068;5.826;2023-04-21T02:29:41;42.60;;;37.43;;
67751;SDS011;54551;51.068;5.826;2023-04-21T02:32:07;41.77;;;37.43;;
67751;SDS011;54551;51.068;5.826;2023-04-21T02:34:33;43.63;;;38.93;;
67751;SDS011;54551;51.068;5.826;2023-04-21T02:36:59;43.37;;;38.90;;
67751;SDS011;54551;51.068;5.826;2023-04-21T02:39:25;43.00;;;38.60;;
67751;SDS011;54551;51.068;5.826;2023-04-21T02:41:51;43.00;;;38.53;;
67751;SDS011;54551;51.068;5.826;2023-04-21T02:44:17;42.83;;;38.27;;
67751;SDS011;54551;51.068;5.826;2023-04-21T02:46:43;44.40;;;39.80;;
67751;SDS011;54551;51.068;5.826;2023-04-21T02:49:09;42.50;;;38.10;;
67751;SDS011;54551;51.068;5.826;2023-04-21T02:51:35;42.10;;;37.60;;
67751;SDS011;54551;51.068;5.826;2023-04-21T02:54:01;44.27;;;39.67;;
67751;SDS011;54551;51.068;5.826;2023-04-21T02:56:28;42.67;;;38.27;;
67751;SDS011;54551;51.068;5.826;2023-04-21T02:58:53;41.23;;;37.00;;
67751;SDS011;54551;51.068;5.826;2023-04-21T03:01:19;43.40;;;39.00;;
67751;SDS011;54551;51.068;5.826;2023-04-21T03:03:45;44.07;;;39.50;;
67751;SDS011;54551;51.068;5.826;2023-04-21T03:06:11;42.67;;;38.17;;
67751;SDS011;54551;51.068;5.826;2023-04-21T03:08:37;43.50;;;39.03;;
67751;SDS011;54551;51.068;5.826;2023-04-21T03:11:04;44.23;;;39.63;;
67751;SDS011;54551;51.068;5.826;2023-04-21T03:13:30;42.93;;;38.47;;
67751;SDS011;54551;51.068;5.826;2023-04-21T03:15:56;42.40;;;38.17;;
67751;SDS011;54551;51.068;5.826;2023-04-21T03:18:22;41.67;;;37.47;;
67751;SDS011;54551;51.068;5.826;2023-04-21T03:20:49;43.37;;;38.73;;
67751;SDS011;54551;51.068;5.826;2023-04-21T03:23:15;46.80;;;41.70;;
67751;SDS011;54551;51.068;5.826;2023-04-21T03:25:41;43.53;;;39.03;;
67751;SDS011;54551;51.068;5.826;2023-04-21T03:28:07;43.37;;;38.87;;
67751;SDS011;54551;51.068;5.826;2023-04-21T03:30:33;45.07;;;40.27;;
67751;SDS011;54551;51.068;5.826;2023-04-21T03:32:59;44.27;;;39.53;;
67751;SDS011;54551;51.068;5.826;2023-04-21T03:35:25;44.90;;;40.10;;
67751;SDS011;54551;51.068;5.826;2023-04-21T03:37:52;44.63;;;39.83;;
67751;SDS011;54551;51.068;5.826;2023-04-21T03:40:19;45.23;;;40.43;;
67751;SDS011;54551;51.068;5.826;2023-04-21T03:42:45;43.83;;;39.13;;
67751;SDS011;54551;51.068;5.826;2023-04-21T03:45:11;45.57;;;40.60;;
67751;SDS011;54551;51.068;5.826;2023-04-21T03:47:37;45.67;;;40.53;;
67751;SDS011;54551;51.068;5.826;2023-04-21T03:50:03;45.70;;;40.70;;
67751;SDS011;54551;51.068;5.826;2023-04-21T03:52:31;46.40;;;41.23;;
67751;SDS011;54551;51.068;5.826;2023-04-21T03:54:57;45.53;;;40.70;;
67751;SDS011;54551;51.068;5.826;2023-04-21T03:57:24;48.93;;;41.97;;
67751;SDS011;54551;51.068;5.826;2023-04-21T03:59:49;50.83;;;43.20;;
67751;SDS011;54551;51.068;5.826;2023-04-21T04:02:15;48.27;;;43.00;;
67751;SDS011;54551;51.068;5.826;2023-04-21T04:04:41;48.67;;;43.33;;
67751;SDS011;54551;51.068;5.826;2023-04-21T04:07:07;50.20;;;42.93;;
67751;SDS011;54551;51.068;5.826;2023-04-21T04:09:34;49.47;;;42.20;;
67751;SDS011;54551;51.068;5.826;2023-04-21T04:12:00;51.67;;;43.77;;
67751;SDS011;54551;51.068;5.826;2023-04-21T04:14:27;51.07;;;42.13;;
67751;SDS011;54551;51.068;5.826;2023-04-21T04:16:54;56.70;;;44.83;;
67751;SDS011;54551;51.068;5.826;2023-04-21T04:19:19;50.77;;;43.00;;
67751;SDS011;54551;51.068;5.826;2023-04-21T04:21:45;57.23;;;46.70;;
67751;SDS011;54551;51.068;5.826;2023-04-21T04:24:11;54.37;;;45.10;;
67751;SDS011;54551;51.068;5.826;2023-04-21T04:26:38;54.80;;;45.30;;
67751;SDS011;54551;51.068;5.826;2023-04-21T04:29:04;54.90;;;44.43;;
67751;SDS011;54551;51.068;5.826;2023-04-21T04:31:34;54.37;;;44.93;;
67751;SDS011;54551;51.068;5.826;2023-04-21T04:34:00;56.03;;;44.73;;
67751;SDS011;54551;51.068;5.826;2023-04-21T04:36:26;53.80;;;45.17;;
67751;SDS011;54551;51.068;5.826;2023-04-21T04:38:53;59.10;;;47.47;;
67751;SDS011;54551;51.068;5.826;2023-04-21T04:41:19;57.23;;;46.60;;
67751;SDS011;54551;51.068;5.826;2023-04-21T04:43:45;57.17;;;45.70;;
67751;SDS011;54551;51.068;5.826;2023-04-21T04:46:11;59.27;;;47.93;;
67751;SDS011;54551;51.068;5.826;2023-04-21T04:48:38;56.63;;;46.07;;
67751;SDS011;54551;51.068;5.826;2023-04-21T04:51:04;58.00;;;46.43;;
67751;SDS011;54551;51.068;5.826;2023-04-21T04:53:30;58.10;;;47.77;;
67751;SDS011;54551;51.068;5.826;2023-04-21T04:55:59;59.40;;;48.87;;
67751;SDS011;54551;51.068;5.826;2023-04-21T04:58:25;68.33;;;52.20;;
67751;SDS011;54551;51.068;5.826;2023-04-21T05:00:51;59.83;;;48.07;;
67751;SDS011;54551;51.068;5.826;2023-04-21T05:03:17;63.53;;;50.43;;
67751;SDS011;54551;51.068;5.826;2023-04-21T05:05:43;60.73;;;47.83;;
67751;SDS011;54551;51.068;5.826;2023-04-21T05:08:10;61.33;;;49.40;;
67751;SDS011;54551;51.068;5.826;2023-04-21T05:10:36;63.03;;;48.40;;
67751;SDS011;54551;51.068;5.826;2023-04-21T05:13:02;63.97;;;50.33;;
67751;SDS011;54551;51.068;5.826;2023-04-21T05:15:28;65.10;;;51.73;;
67751;SDS011;54551;51.068;5.826;2023-04-21T05:17:54;61.93;;;49.00;;
67751;SDS011;54551;51.068;5.826;2023-04-21T05:20:20;62.70;;;50.03;;
67751;SDS011;54551;51.068;5.826;2023-04-21T05:22:46;64.43;;;50.33;;
67751;SDS011;54551;51.068;5.826;2023-04-21T05:25:12;64.30;;;50.53;;
67751;SDS011;54551;51.068;5.826;2023-04-21T05:27:40;56.63;;;46.33;;
67751;SDS011;54551;51.068;5.826;2023-04-21T05:30:06;62.23;;;48.93;;
67751;SDS011;54551;51.068;5.826;2023-04-21T05:32:33;58.00;;;45.77;;
67751;SDS011;54551;51.068;5.826;2023-04-21T05:34:59;55.07;;;46.60;;
67751;SDS011;54551;51.068;5.826;2023-04-21T05:37:25;55.77;;;46.37;;
67751;SDS011;54551;51.068;5.826;2023-04-21T05:39:51;54.07;;;47.90;;
67751;SDS011;54551;51.068;5.826;2023-04-21T05:42:17;59.87;;;48.33;;
67751;SDS011;54551;51.068;5.826;2023-04-21T05:44:43;54.27;;;44.97;;
67751;SDS011;54551;51.068;5.826;2023-04-21T05:47:09;49.07;;;43.60;;
67751;SDS011;54551;51.068;5.826;2023-04-21T05:49:35;49.40;;;41.73;;
67751;SDS011;54551;51.068;5.826;2023-04-21T05:52:01;45.43;;;40.63;;
67751;SDS011;54551;51.068;5.826;2023-04-21T05:54:27;43.43;;;39.00;;
67751;SDS011;54551;51.068;5.826;2023-04-21T05:56:52;43.97;;;39.17;;
67751;SDS011;54551;51.068;5.826;2023-04-21T05:59:18;42.37;;;37.97;;
67751;SDS011;54551;51.068;5.826;2023-04-21T06:01:45;41.27;;;36.97;;
67751;SDS011;54551;51.068;5.826;2023-04-21T06:04:11;42.37;;;37.97;;
67751;SDS011;54551;51.068;5.826;2023-04-21T06:06:36;41.10;;;36.80;;
67751;SDS011;54551;51.068;5.826;2023-04-21T06:09:02;39.23;;;35.13;;
67751;SDS011;54551;51.068;5.826;2023-04-21T06:11:29;38.13;;;34.23;;
67751;SDS011;54551;51.068;5.826;2023-04-21T06:13:55;40.80;;;36.70;;
67751;SDS011;54551;51.068;5.826;2023-04-21T06:16:23;39.10;;;35.03;;
67751;SDS011;54551;51.068;5.826;2023-04-21T06:18:52;38.60;;;34.60;;
67751;SDS011;54551;51.068;5.826;2023-04-21T06:21:18;38.50;;;34.53;;
67751;SDS011;54551;51.068;5.826;2023-04-21T06:23:44;36.97;;;33.13;;
67751;SDS011;54551;51.068;5.826;2023-04-21T06:26:10;38.47;;;34.47;;
67751;SDS011;54551;51.068;5.826;2023-04-21T06:28:38;38.73;;;32.77;;
67751;SDS011;54551;51.068;5.826;2023-04-21T06:31:04;34.50;;;30.93;;
67751;SDS011;54551;51.068;5.826;2023-04-21T06:33:31;34.27;;;30.73;;
67751;SDS011;54551;51.068;5.826;2023-04-21T06:35:57;38.63;;;33.77;;
67751;SDS011;54551;51.068;5.826;2023-04-21T06:38:23;36.27;;;32.47;;
67751;SDS011;54551;51.068;5.826;2023-04-21T06:40:49;37.83;;;33.90;;
67751;SDS011;54551;51.068;5.826;2023-04-21T06:43:15;37.57;;;33.70;;
67751;SDS011;54551;51.068;5.826;2023-04-21T06:45:41;33.17;;;29.70;;
67751;SDS011;54551;51.068;5.826;2023-04-21T06:48:07;35.03;;;31.43;;
67751;SDS011;54551;51.068;5.826;2023-04-21T06:50:33;35.17;;;31.37;;
67751;SDS011;54551;51.068;5.826;2023-04-21T06:52:59;34.60;;;31.07;;
67751;SDS011;54551;51.068;5.826;2023-04-21T06:55:25;32.53;;;29.10;;
67751;SDS011;54551;51.068;5.826;2023-04-21T06:57:51;33.53;;;30.03;;
67751;SDS011;54551;51.068;5.826;2023-04-21T07:00:17;32.17;;;28.87;;
67751;SDS011;54551;51.068;5.826;2023-04-21T07:02:43;32.70;;;29.40;;
67751;SDS011;54551;51.068;5.826;2023-04-21T07:05:09;26.73;;;24.03;;
67751;SDS011;54551;51.068;5.826;2023-04-21T07:07:35;29.30;;;26.27;;
67751;SDS011;54551;51.068;5.826;2023-04-21T07:10:01;27.27;;;24.63;;
67751;SDS011;54551;51.068;5.826;2023-04-21T07:12:27;28.30;;;25.50;;
67751;SDS011;54551;51.068;5.826;2023-04-21T07:14:52;26.33;;;23.83;;
67751;SDS011;54551;51.068;5.826;2023-04-21T07:17:18;27.37;;;24.67;;
67751;SDS011;54551;51.068;5.826;2023-04-21T07:19:44;28.07;;;25.20;;
67751;SDS011;54551;51.068;5.826;2023-04-21T07:22:10;28.70;;;25.67;;
67751;SDS011;54551;51.068;5.826;2023-04-21T07:24:36;24.00;;;21.80;;
67751;SDS011;54551;51.068;5.826;2023-04-21T07:27:02;27.67;;;25.00;;
67751;SDS011;54551;51.068;5.826;2023-04-21T07:29:28;26.20;;;23.63;;
67751;SDS011;54551;51.068;5.826;2023-04-21T07:31:54;25.53;;;23.13;;
67751;SDS011;54551;51.068;5.826;2023-04-21T07:34:20;25.70;;;23.07;;
67751;SDS011;54551;51.068;5.826;2023-04-21T07:36:46;22.93;;;20.83;;
67751;SDS011;54551;51.068;5.826;2023-04-21T07:39:12;22.43;;;20.13;;
67751;SDS011;54551;51.068;5.826;2023-04-21T07:41:38;24.03;;;21.60;;
67751;SDS011;54551;51.068;5.826;2023-04-21T07:44:04;24.03;;;21.83;;
67751;SDS011;54551;51.068;5.826;2023-04-21T07:46:30;23.97;;;21.47;;
67751;SDS011;54551;51.068;5.826;2023-04-21T07:48:57;23.53;;;21.43;;
67751;SDS011;54551;51.068;5.826;2023-04-21T07:51:24;23.63;;;21.43;;
67751;SDS011;54551;51.068;5.826;2023-04-21T07:53:51;23.53;;;21.37;;
67751;SDS011;54551;51.068;5.826;2023-04-21T07:56:18;20.53;;;18.73;;
67751;SDS011;54551;51.068;5.826;2023-04-21T07:58:43;25.73;;;23.23;;
67751;SDS011;54551;51.068;5.826;2023-04-21T08:01:22;21.93;;;19.63;;
67751;SDS011;54551;51.068;5.826;2023-04-21T08:03:53;21.43;;;19.43;;
67751;SDS011;54551;51.068;5.826;2023-04-21T08:06:19;22.33;;;20.23;;
67751;SDS011;54551;51.068;5.826;2023-04-21T08:08:45;19.47;;;17.57;;
67751;SDS011;54551;51.068;5.826;2023-04-21T08:11:11;19.77;;;17.97;;
67751;SDS011;54551;51.068;5.826;2023-04-21T08:13:37;20.20;;;18.10;;
67751;SDS011;54551;51.068;5.826;2023-04-21T08:16:03;21.17;;;19.20;;
67751;SDS011;54551;51.068;5.826;2023-04-21T08:18:29;20.13;;;18.13;;
67751;SDS011;54551;51.068;5.826;2023-04-21T08:20:56;21.17;;;19.10;;
67751;SDS011;54551;51.068;5.826;2023-04-21T08:23:22;19.10;;;17.23;;
67751;SDS011;54551;51.068;5.826;2023-04-21T08:25:48;19.50;;;17.80;;
67751;SDS011;54551;51.068;5.826;2023-04-21T08:28:14;20.33;;;18.50;;
67751;SDS011;54551;51.068;5.826;2023-04-21T08:30:40;19.37;;;17.67;;
67751;SDS011;54551;51.068;5.826;2023-04-21T08:33:07;16.87;;;15.37;;
67751;SDS011;54551;51.068;5.826;2023-04-21T08:35:37;18.43;;;16.73;;
67751;SDS011;54551;51.068;5.826;2023-04-21T08:38:07;18.00;;;16.30;;
67751;SDS011;54551;51.068;5.826;2023-04-21T08:40:34;16.87;;;15.27;;
67751;SDS011;54551;51.068;5.826;2023-04-21T08:43:05;17.17;;;15.67;;
67751;SDS011;54551;51.068;5.826;2023-04-21T08:45:31;17.20;;;15.70;;
67751;SDS011;54551;51.068;5.826;2023-04-21T08:47:58;16.90;;;15.30;;
67751;SDS011;54551;51.068;5.826;2023-04-21T08:50:26;16.30;;;14.90;;
67751;SDS011;54551;51.068;5.826;2023-04-21T08:52:54;19.93;;;17.97;;
67751;SDS011;54551;51.068;5.826;2023-04-21T08:55:24;16.33;;;14.70;;
67751;SDS011;54551;51.068;5.826;2023-04-21T08:57:53;17.10;;;15.47;;
67751;SDS011;54551;51.068;5.826;2023-04-21T09:00:19;15.80;;;14.50;;
67751;SDS011;54551;51.068;5.826;2023-04-21T09:03:20;16.67;;;15.03;;
67751;SDS011;54551;51.068;5.826;2023-04-21T09:05:38;15.70;;;14.30;;
67751;SDS011;54551;51.068;5.826;2023-04-21T09:10:44;13.67;;;12.37;;
67751;SDS011;54551;51.068;5.826;2023-04-21T09:13:11;14.67;;;13.37;;
67751;SDS011;54551;51.068;5.826;2023-04-21T09:15:41;14.40;;;13.10;;
67751;SDS011;54551;51.068;5.826;2023-04-21T09:18:15;15.00;;;13.57;;
67751;SDS011;54551;51.068;5.826;2023-04-21T09:20:43;15.70;;;14.23;;
67751;SDS011;54551;51.068;5.826;2023-04-21T09:23:10;13.67;;;12.27;;
67751;SDS011;54551;51.068;5.826;2023-04-21T09:25:37;13.63;;;12.23;;
67751;SDS011;54551;51.068;5.826;2023-04-21T09:28:07;12.67;;;11.47;;
67751;SDS011;54551;51.068;5.826;2023-04-21T09:30:35;13.57;;;12.27;;
67751;SDS011;54551;51.068;5.826;2023-04-21T09:33:02;11.80;;;10.70;;
67751;SDS011;54551;51.068;5.826;2023-04-21T09:35:29;10.37;;;9.30;;
67751;SDS011;54551;51.068;5.826;2023-04-21T09:37:59;13.10;;;11.73;;
67751;SDS011;54551;51.068;5.826;2023-04-21T09:40:26;12.07;;;10.87;;
67751;SDS011;54551;51.068;5.826;2023-04-21T09:42:55;12.57;;;11.33;;
67751;SDS011;54551;51.068;5.826;2023-04-21T09:45:25;12.20;;;10.90;;
67751;SDS011;54551;51.068;5.826;2023-04-21T09:47:53;13.63;;;12.40;;
67751;SDS011;54551;51.068;5.826;2023-04-21T09:50:22;11.43;;;10.23;;
67751;SDS011;54551;51.068;5.826;2023-04-21T09:52:52;13.23;;;11.93;;
67751;SDS011;54551;51.068;5.826;2023-04-21T09:55:27;13.17;;;11.80;;
67751;SDS011;54551;51.068;5.826;2023-04-21T09:57:58;13.60;;;12.40;;
67751;SDS011;54551;51.068;5.826;2023-04-21T10:00:26;13.30;;;12.10;;
67751;SDS011;54551;51.068;5.826;2023-04-21T10:02:53;13.83;;;12.47;;
67751;SDS011;54551;51.068;5.826;2023-04-21T10:05:21;12.43;;;11.33;;
67751;SDS011;54551;51.068;5.826;2023-04-21T10:07:47;12.20;;;10.93;;
67751;SDS011;54551;51.068;5.826;2023-04-21T10:10:20;10.83;;;9.93;;
67751;SDS011;54551;51.068;5.826;2023-04-21T10:12:49;12.90;;;11.63;;
67751;SDS011;54551;51.068;5.826;2023-04-21T10:18:15;12.37;;;11.27;;
67751;SDS011;54551;51.068;5.826;2023-04-21T10:28:45;11.80;;;10.60;;
67751;SDS011;54551;51.068;5.826;2023-04-21T10:31:21;13.50;;;12.17;;
67751;SDS011;54551;51.068;5.826;2023-04-21T10:36:32;13.53;;;11.63;;
67751;SDS011;54551;51.068;5.826;2023-04-21T10:38:59;14.10;;;12.57;;
67751;SDS011;54551;51.068;5.826;2023-04-21T10:41:33;11.90;;;10.70;;
67751;SDS011;54551;51.068;5.826;2023-04-21T10:44:00;13.73;;;12.40;;
67751;SDS011;54551;51.068;5.826;2023-04-21T10:46:48;14.07;;;12.57;;
67751;SDS011;54551;51.068;5.826;2023-04-21T10:49:23;15.57;;;14.07;;
67751;SDS011;54551;51.068;5.826;2023-04-21T10:54:23;14.47;;;13.17;;
67751;SDS011;54551;51.068;5.826;2023-04-21T10:56:50;11.83;;;10.73;;
67751;SDS011;54551;51.068;5.826;2023-04-21T10:59:20;12.00;;;10.77;;
67751;SDS011;54551;51.068;5.826;2023-04-21T11:01:47;12.07;;;10.87;;
67751;SDS011;54551;51.068;5.826;2023-04-21T11:04:14;11.93;;;10.83;;
67751;SDS011;54551;51.068;5.826;2023-04-21T11:06:41;11.60;;;10.50;;
67751;SDS011;54551;51.068;5.826;2023-04-21T11:09:07;11.00;;;9.87;;
67751;SDS011;54551;51.068;5.826;2023-04-21T11:11:34;12.73;;;11.57;;
67751;SDS011;54551;51.068;5.826;2023-04-21T11:14:03;11.37;;;10.23;;
67751;SDS011;54551;51.068;5.826;2023-04-21T11:16:29;12.10;;;10.90;;
67751;SDS011;54551;51.068;5.826;2023-04-21T11:18:55;9.70;;;8.80;;
67751;SDS011;54551;51.068;5.826;2023-04-21T11:21:21;9.80;;;8.90;;
67751;SDS011;54551;51.068;5.826;2023-04-21T11:29:02;10.83;;;9.73;;
67751;SDS011;54551;51.068;5.826;2023-04-21T11:31:30;9.80;;;8.80;;
67751;SDS011;54551;51.068;5.826;2023-04-21T11:33:57;11.37;;;10.27;;
67751;SDS011;54551;51.068;5.826;2023-04-21T11:36:23;9.67;;;8.67;;
67751;SDS011;54551;51.068;5.826;2023-04-21T11:38:49;10.80;;;9.70;;
67751;SDS011;54551;51.068;5.826;2023-04-21T11:41:22;9.83;;;8.83;;
67751;SDS011;54551;51.068;5.826;2023-04-21T11:43:49;10.27;;;9.27;;
67751;SDS011;54551;51.068;5.826;2023-04-21T11:46:23;9.93;;;9.03;;
67751;SDS011;54551;51.068;5.826;2023-04-21T11:48:58;9.53;;;8.60;;
67751;SDS011;54551;51.068;5.826;2023-04-21T11:51:24;11.10;;;10.00;;
67751;SDS011;54551;51.068;5.826;2023-04-21T11:53:52;9.57;;;8.67;;
67751;SDS011;54551;51.068;5.826;2023-04-21T11:56:21;8.83;;;7.93;;
67751;SDS011;54551;51.068;5.826;2023-04-21T11:58:50;10.10;;;9.20;;
67751;SDS011;54551;51.068;5.826;2023-04-21T12:01:17;9.40;;;8.50;;
67751;SDS011;54551;51.068;5.826;2023-04-21T12:03:51;8.60;;;7.80;;
67751;SDS011;54551;51.068;5.826;2023-04-21T12:06:24;10.93;;;9.53;;
67751;SDS011;54551;51.068;5.826;2023-04-21T12:08:59;10.43;;;9.53;;
67751;SDS011;54551;51.068;5.826;2023-04-21T12:11:26;10.77;;;9.77;;
67751;SDS011;54551;51.068;5.826;2023-04-21T12:13:57;10.77;;;9.77;;
67751;SDS011;54551;51.068;5.826;2023-04-21T12:16:24;9.50;;;8.53;;
67751;SDS011;54551;51.068;5.826;2023-04-21T12:18:54;8.40;;;7.57;;
67751;SDS011;54551;51.068;5.826;2023-04-21T12:21:21;9.13;;;8.23;;
67751;SDS011;54551;51.068;5.826;2023-04-21T12:23:50;10.10;;;9.20;;
67751;SDS011;54551;51.068;5.826;2023-04-21T12:26:16;10.83;;;9.83;;
67751;SDS011;54551;51.068;5.826;2023-04-21T12:28:42;10.53;;;9.47;;
67751;SDS011;54551;51.068;5.826;2023-04-21T12:31:08;9.93;;;8.93;;
67751;SDS011;54551;51.068;5.826;2023-04-21T12:33:34;9.07;;;8.27;;
67751;SDS011;54551;51.068;5.826;2023-04-21T12:36:00;9.70;;;8.80;;
67751;SDS011;54551;51.068;5.826;2023-04-21T12:38:26;9.17;;;8.03;;
67751;SDS011;54551;51.068;5.826;2023-04-21T12:40:52;10.80;;;9.90;;
67751;SDS011;54551;51.068;5.826;2023-04-21T12:43:18;11.57;;;10.37;;
67751;SDS011;54551;51.068;5.826;2023-04-21T12:45:44;11.63;;;10.50;;
67751;SDS011;54551;51.068;5.826;2023-04-21T12:48:10;11.87;;;10.77;;
67751;SDS011;54551;51.068;5.826;2023-04-21T12:50:36;13.37;;;12.17;;
67751;SDS011;54551;51.068;5.826;2023-04-21T12:53:02;14.27;;;12.83;;
67751;SDS011;54551;51.068;5.826;2023-04-21T12:55:28;12.27;;;11.17;;
67751;SDS011;54551;51.068;5.826;2023-04-21T12:57:54;11.77;;;10.67;;
67751;SDS011;54551;51.068;5.826;2023-04-21T13:00:20;14.03;;;12.73;;
67751;SDS011;54551;51.068;5.826;2023-04-21T13:02:46;13.13;;;11.93;;
67751;SDS011;54551;51.068;5.826;2023-04-21T13:05:12;14.03;;;12.73;;
67751;SDS011;54551;51.068;5.826;2023-04-21T13:07:39;11.93;;;10.77;;
67751;SDS011;54551;51.068;5.826;2023-04-21T13:10:05;13.07;;;11.80;;
67751;SDS011;54551;51.068;5.826;2023-04-21T13:12:32;13.20;;;11.90;;
67751;SDS011;54551;51.068;5.826;2023-04-21T13:14:58;15.20;;;13.67;;
67751;SDS011;54551;51.068;5.826;2023-04-21T13:17:24;14.57;;;13.17;;
67751;SDS011;54551;51.068;5.826;2023-04-21T13:19:50;14.53;;;13.03;;
67751;SDS011;54551;51.068;5.826;2023-04-21T13:22:16;13.83;;;11.87;;
67751;SDS011;54551;51.068;5.826;2023-04-21T13:24:42;13.13;;;11.83;;
67751;SDS011;54551;51.068;5.826;2023-04-21T13:27:08;13.70;;;12.23;;
67751;SDS011;54551;51.068;5.826;2023-04-21T13:29:34;14.17;;;12.70;;
67751;SDS011;54551;51.068;5.826;2023-04-21T13:32:03;13.13;;;11.83;;
67751;SDS011;54551;51.068;5.826;2023-04-21T13:34:31;12.90;;;11.60;;
67751;SDS011;54551;51.068;5.826;2023-04-21T13:36:58;12.20;;;11.00;;
67751;SDS011;54551;51.068;5.826;2023-04-21T13:39:27;13.37;;;11.97;;
67751;SDS011;54551;51.068;5.826;2023-04-21T13:41:53;11.13;;;9.93;;
67751;SDS011;54551;51.068;5.826;2023-04-21T13:44:19;11.33;;;10.17;;
67751;SDS011;54551;51.068;5.826;2023-04-21T13:46:47;11.83;;;10.40;;
67751;SDS011;54551;51.068;5.826;2023-04-21T13:49:16;9.50;;;8.53;;
67751;SDS011;54551;51.068;5.826;2023-04-21T13:51:42;10.90;;;9.87;;
67751;SDS011;54551;51.068;5.826;2023-04-21T13:54:07;11.03;;;9.83;;
67751;SDS011;54551;51.068;5.826;2023-04-21T13:56:33;10.80;;;9.77;;
67751;SDS011;54551;51.068;5.826;2023-04-21T13:59:00;12.33;;;9.73;;
67751;SDS011;54551;51.068;5.826;2023-04-21T14:01:26;11.43;;;10.00;;
67751;SDS011;54551;51.068;5.826;2023-04-21T14:03:52;11.27;;;10.03;;
67751;SDS011;54551;51.068;5.826;2023-04-21T14:06:18;9.23;;;8.33;;
67751;SDS011;54551;51.068;5.826;2023-04-21T14:08:44;8.50;;;7.70;;
67751;SDS011;54551;51.068;5.826;2023-04-21T14:11:09;9.60;;;7.90;;
67751;SDS011;54551;51.068;5.826;2023-04-21T14:13:35;6.60;;;5.93;;
67751;SDS011;54551;51.068;5.826;2023-04-21T14:16:01;7.67;;;6.70;;
67751;SDS011;54551;51.068;5.826;2023-04-21T14:18:27;8.63;;;7.70;;
67751;SDS011;54551;51.068;5.826;2023-04-21T14:20:53;7.60;;;6.83;;
67751;SDS011;54551;51.068;5.826;2023-04-21T14:23:19;8.70;;;6.47;;
67751;SDS011;54551;51.068;5.826;2023-04-21T14:25:45;7.80;;;7.10;;
67751;SDS011;54551;51.068;5.826;2023-04-21T14:28:11;7.97;;;7.17;;
67751;SDS011;54551;51.068;5.826;2023-04-21T14:30:37;8.23;;;7.13;;
67751;SDS011;54551;51.068;5.826;2023-04-21T14:33:03;11.40;;;8.17;;
67751;SDS011;54551;51.068;5.826;2023-04-21T14:35:29;7.53;;;6.83;;
67751;SDS011;54551;51.068;5.826;2023-04-21T14:37:58;6.93;;;6.20;;
67751;SDS011;54551;51.068;5.826;2023-04-21T14:40:25;6.67;;;5.20;;
67751;SDS011;54551;51.068;5.826;2023-04-21T14:42:51;6.40;;;5.90;;
67751;SDS011;54551;51.068;5.826;2023-04-21T14:45:17;6.73;;;5.53;;
67751;SDS011;54551;51.068;5.826;2023-04-21T14:47:43;5.23;;;4.20;;